createdAt,value
2019-03-31T00:01:56.004Z,2.80
2019-03-31T00:06:50.202Z,7.40
2019-03-31T00:11:44.184Z,5.20
2019-03-31T00:16:38.193Z,5.90
2019-03-31T00:21:32.144Z,6.17
2019-03-31T00:26:26.102Z,5.33
2019-03-31T00:31:22.304Z,5.50
2019-03-31T00:36:14.164Z,6.33
2019-03-31T00:41:08.141Z,4.93
2019-03-31T00:46:02.054Z,4.87
2019-03-31T00:50:56.132Z,5.80
2019-03-31T00:55:50.076Z,5.33
2019-03-31T01:01:02.112Z,4.87
2019-03-31T01:05:56.047Z,5.90
2019-03-31T01:10:50.266Z,5.87
2019-03-31T01:15:44.193Z,6.10
2019-03-31T01:20:38.225Z,5.43
2019-03-31T01:25:32.151Z,5.03
2019-03-31T01:30:26.084Z,5.13
2019-03-31T01:35:20.017Z,5.47
2019-03-31T01:40:14.204Z,4.87
2019-03-31T01:45:08.307Z,4.30
2019-03-31T01:50:02.498Z,4.60
2019-03-31T01:54:56.421Z,4.53
2019-03-31T01:59:50.350Z,4.10
2019-03-31T02:04:44.279Z,4.10
2019-03-31T02:09:38.262Z,3.57
2019-03-31T02:14:45.367Z,4.10
2019-03-31T02:20:10.710Z,3.80
2019-03-31T02:25:04.784Z,3.50
2019-03-31T02:29:58.751Z,3.10
2019-03-31T02:34:52.695Z,3.00
2019-03-31T02:39:46.615Z,2.80
2019-03-31T02:44:40.651Z,4.20
2019-03-31T02:49:35.003Z,3.67
2019-03-31T02:54:28.918Z,4.67
2019-03-31T02:59:22.951Z,4.53
2019-03-31T03:04:17.163Z,4.30
2019-03-31T03:09:11.063Z,3.90
2019-03-31T03:14:05.263Z,4.27
2019-03-31T03:18:59.299Z,3.67
2019-03-31T03:23:53.522Z,4.23
2019-03-31T03:28:47.380Z,4.05
2019-03-31T03:33:41.308Z,4.17
2019-03-31T03:38:35.228Z,4.13
2019-03-31T03:43:29.155Z,3.93
2019-03-31T03:48:23.066Z,3.93
2019-03-31T03:53:16.991Z,3.63
2019-03-31T03:58:10.916Z,3.50
2019-03-31T04:03:04.925Z,4.10
2019-03-31T04:07:59.101Z,3.10
2019-03-31T04:12:53.158Z,3.70
2019-03-31T04:17:47.155Z,3.10
2019-03-31T04:22:41.179Z,3.30
2019-03-31T04:27:35.054Z,2.90
2019-03-31T04:32:29.114Z,3.03
2019-03-31T04:37:23.116Z,3.00
2019-03-31T04:42:17.055Z,2.93
2019-03-31T04:47:10.968Z,3.30
2019-03-31T04:52:04.897Z,2.70
2019-03-31T04:56:58.804Z,2.87
2019-03-31T05:01:52.732Z,3.20
2019-03-31T05:06:46.638Z,3.00
2019-03-31T05:11:40.835Z,2.80
2019-03-31T05:16:35.075Z,3.23
2019-03-31T05:21:29.067Z,3.00
2019-03-31T05:26:22.974Z,2.63
2019-03-31T05:31:17.054Z,2.73
2019-03-31T05:36:11.387Z,2.80
2019-03-31T05:41:05.687Z,2.70
2019-03-31T05:45:59.598Z,2.53
2019-03-31T05:50:53.633Z,2.43
2019-03-31T05:55:47.551Z,2.23
2019-03-31T06:00:44.087Z,2.23
2019-03-31T06:05:38.039Z,2.10
2019-03-31T06:10:31.964Z,1.80
2019-03-31T06:15:25.892Z,2.13
2019-03-31T06:20:19.808Z,2.17
2019-03-31T06:25:13.758Z,2.40
2019-03-31T06:30:07.761Z,1.77
2019-03-31T06:35:01.686Z,1.70
2019-03-31T06:39:55.606Z,1.73
2019-03-31T06:44:49.540Z,1.80
2019-03-31T06:49:43.491Z,1.77
2019-03-31T06:54:37.440Z,1.57
2019-03-31T06:59:31.399Z,1.80
2019-03-31T07:04:25.671Z,1.73
2019-03-31T07:09:19.676Z,1.43
2019-03-31T07:14:13.690Z,1.80
2019-03-31T07:19:07.631Z,1.67
2019-03-31T07:24:01.554Z,1.33
2019-03-31T07:28:55.683Z,1.70
2019-03-31T07:33:49.645Z,2.23
2019-03-31T07:38:43.573Z,1.70
2019-03-31T07:43:37.491Z,1.57
2019-03-31T07:48:31.408Z,1.33
2019-03-31T07:53:25.616Z,1.60
2019-03-31T07:58:19.541Z,2.17
2019-03-31T08:03:13.434Z,1.73
2019-03-31T08:08:07.369Z,1.53
2019-03-31T08:13:01.372Z,1.87
2019-03-31T08:17:55.195Z,1.53
2019-03-31T08:22:49.095Z,1.90
2019-03-31T08:27:43.041Z,1.93
2019-03-31T08:32:36.954Z,1.73
2019-03-31T08:37:30.840Z,1.53
2019-03-31T08:42:24.956Z,1.57
2019-03-31T08:47:18.965Z,1.60
2019-03-31T08:52:12.987Z,1.50
2019-03-31T08:57:06.946Z,1.60
2019-03-31T09:02:20.092Z,1.60
2019-03-31T09:07:13.995Z,3.00
2019-03-31T09:12:07.939Z,1.63
2019-03-31T09:17:01.856Z,1.93
2019-03-31T09:21:55.802Z,3.37
2019-03-31T09:26:49.737Z,3.67
2019-03-31T09:31:44.000Z,2.77
2019-03-31T09:36:37.945Z,2.50
2019-03-31T09:41:31.898Z,3.10
2019-03-31T09:46:25.911Z,2.87
2019-03-31T09:51:19.908Z,2.97
2019-03-31T09:56:15.315Z,2.07
2019-03-31T10:01:08.266Z,1.67
2019-03-31T10:06:10.505Z,2.40
2019-03-31T10:10:55.886Z,1.90
2019-03-31T10:15:49.878Z,2.13
2019-03-31T10:20:44.224Z,1.70
2019-03-31T10:25:38.107Z,1.60
2019-03-31T10:30:32.697Z,1.70
2019-03-31T10:35:26.769Z,1.67
2019-03-31T10:40:20.833Z,1.67
2019-03-31T10:45:14.761Z,1.73
2019-03-31T10:50:08.738Z,1.90
2019-03-31T10:55:02.744Z,1.97
2019-03-31T10:59:56.762Z,1.60
2019-03-31T11:04:50.662Z,1.80
2019-03-31T11:09:44.785Z,4.07
2019-03-31T11:14:38.755Z,2.03
2019-03-31T11:19:32.700Z,1.80
2019-03-31T11:24:26.716Z,2.47
2019-03-31T11:29:20.699Z,1.93
2019-03-31T11:34:14.701Z,1.90
2019-03-31T11:39:08.676Z,2.40
2019-03-31T11:44:02.694Z,3.30
2019-03-31T11:48:56.643Z,2.40
2019-03-31T11:53:50.669Z,3.00
2019-03-31T11:58:44.604Z,2.47
2019-03-31T12:03:38.673Z,2.87
2019-03-31T12:08:32.646Z,2.30
2019-03-31T12:13:26.609Z,2.90
2019-03-31T12:18:20.710Z,2.60
2019-03-31T12:23:14.956Z,2.63
2019-03-31T12:28:08.885Z,2.33
2019-03-31T12:33:02.920Z,2.73
2019-03-31T12:37:56.851Z,2.53
2019-03-31T12:42:50.904Z,2.23
2019-03-31T12:47:44.843Z,2.27
2019-03-31T12:52:46.520Z,2.10
2019-03-31T12:57:32.938Z,2.20
2019-03-31T13:02:26.880Z,2.27
2019-03-31T13:07:20.781Z,2.00
2019-03-31T13:12:14.875Z,2.67
2019-03-31T13:17:08.771Z,2.30
2019-03-31T13:22:02.866Z,2.10
2019-03-31T13:26:56.782Z,2.30
2019-03-31T13:31:50.843Z,1.93
2019-03-31T13:36:44.742Z,2.20
2019-03-31T13:41:38.838Z,2.17
2019-03-31T13:46:32.766Z,2.43
2019-03-31T13:51:26.830Z,1.87
2019-03-31T13:56:20.822Z,1.70
2019-03-31T14:01:14.814Z,1.40
2019-03-31T14:06:08.705Z,1.73
2019-03-31T14:11:02.807Z,2.10
2019-03-31T14:15:56.817Z,1.53
2019-03-31T14:20:50.813Z,1.70
2019-03-31T14:25:44.800Z,1.40
2019-03-31T14:30:38.780Z,1.67
2019-03-31T14:35:32.763Z,1.80
2019-03-31T14:40:26.777Z,2.40
2019-03-31T14:45:33.893Z,2.00
2019-03-31T14:50:30.785Z,1.60
2019-03-31T14:55:24.734Z,1.77
2019-03-31T15:00:18.711Z,1.57
2019-03-31T15:05:12.716Z,1.50
2019-03-31T15:10:06.692Z,1.40
2019-03-31T15:15:00.692Z,1.60
2019-03-31T15:19:54.697Z,1.60
2019-03-31T15:24:48.685Z,1.47
2019-03-31T15:29:42.683Z,1.70
2019-03-31T15:34:36.709Z,1.67
2019-03-31T15:39:30.637Z,1.83
2019-03-31T15:44:24.652Z,1.83
2019-03-31T15:49:18.628Z,1.70
2019-03-31T15:54:12.513Z,1.30
2019-03-31T15:59:06.420Z,1.63
2019-03-31T16:04:00.638Z,1.40
2019-03-31T16:08:54.025Z,1.07
2019-03-31T16:13:47.556Z,1.90
2019-03-31T16:18:41.133Z,1.50
2019-03-31T16:23:34.550Z,1.53
2019-03-31T16:28:28.205Z,1.27
2019-03-31T16:33:21.595Z,1.37
2019-03-31T16:38:14.969Z,1.77
2019-03-31T16:43:08.650Z,1.40
2019-03-31T16:48:01.995Z,1.83
2019-03-31T16:52:55.412Z,1.33
2019-03-31T16:57:48.775Z,1.43
2019-03-31T17:02:42.207Z,1.23
2019-03-31T17:07:35.897Z,1.30
2019-03-31T17:12:29.289Z,1.40
2019-03-31T17:17:22.788Z,1.43
2019-03-31T17:22:16.333Z,1.53
2019-03-31T17:27:09.847Z,1.63
2019-03-31T17:32:03.783Z,1.27
2019-03-31T17:36:57.350Z,1.20
2019-03-31T17:41:51.043Z,1.80
2019-03-31T17:46:44.594Z,1.60
2019-03-31T17:51:38.178Z,2.03
2019-03-31T17:56:31.665Z,2.07
2019-03-31T18:01:25.325Z,1.47
2019-03-31T18:06:18.897Z,1.73
2019-03-31T18:11:12.332Z,1.20
2019-03-31T18:16:05.794Z,1.47
2019-03-31T18:20:59.303Z,1.60
2019-03-31T18:25:52.795Z,1.83
2019-03-31T18:30:46.109Z,1.60
2019-03-31T18:35:39.775Z,1.87
2019-03-31T18:40:35.333Z,1.50
2019-03-31T18:45:27.181Z,1.57
2019-03-31T18:50:20.827Z,1.50
2019-03-31T18:55:39.522Z,1.57
2019-03-31T19:00:55.811Z,1.60
2019-03-31T19:06:07.112Z,1.50
2019-03-31T19:11:25.751Z,1.53
2019-03-31T19:16:38.408Z,1.60
2019-03-31T19:21:52.990Z,1.63
2019-03-31T19:27:08.727Z,1.70
2019-03-31T19:32:20.334Z,1.47
2019-03-31T19:37:38.801Z,1.53
2019-03-31T19:43:00.686Z,1.40
2019-03-31T19:48:11.482Z,2.00
2019-03-31T19:53:27.123Z,1.90
2019-03-31T19:58:38.489Z,1.83
2019-03-31T20:03:44.961Z,1.83
2019-03-31T20:09:15.728Z,1.60
2019-03-31T20:14:27.229Z,2.07
2019-03-31T20:19:43.124Z,1.80
2019-03-31T20:25:08.112Z,1.63
2019-03-31T20:30:30.470Z,2.10
2019-03-31T20:35:52.158Z,2.07
2019-03-31T20:40:52.570Z,1.97
2019-03-31T20:45:45.962Z,1.90
2019-03-31T20:50:39.470Z,2.20
2019-03-31T20:55:32.877Z,1.90
2019-03-31T21:00:26.288Z,2.60
2019-03-31T21:05:19.655Z,2.00
2019-03-31T21:10:13.059Z,2.20
2019-03-31T21:15:06.453Z,1.90
2019-03-31T21:20:00.093Z,2.10
2019-03-31T21:24:53.744Z,1.73
2019-03-31T21:29:47.120Z,2.10
2019-03-31T21:34:40.822Z,2.53
2019-03-31T21:39:34.202Z,1.83
2019-03-31T21:44:27.588Z,2.40
2019-03-31T21:49:21.235Z,1.80
2019-03-31T21:54:14.646Z,2.17
2019-03-31T21:59:08.051Z,1.87
2019-03-31T22:04:01.450Z,1.87
2019-03-31T22:08:54.838Z,1.60
2019-03-31T22:13:48.438Z,1.83
2019-03-31T22:18:41.829Z,1.87
2019-03-31T22:23:35.226Z,1.90
2019-03-31T22:28:28.635Z,1.50
2019-03-31T22:33:22.252Z,1.27
2019-03-31T22:38:15.663Z,1.70
2019-03-31T22:43:09.068Z,1.80
2019-03-31T22:48:02.718Z,1.73
2019-03-31T22:52:56.419Z,1.80
2019-03-31T22:57:49.804Z,1.10
2019-03-31T23:02:43.222Z,1.42
2019-03-31T23:07:36.626Z,1.40
2019-03-31T23:12:30.233Z,1.47
2019-03-31T23:17:23.772Z,1.43
2019-03-31T23:22:17.211Z,2.20
2019-03-31T23:27:10.618Z,1.27
2019-03-31T23:32:04.043Z,1.10
2019-03-31T23:36:57.461Z,1.40
2019-03-31T23:41:51.413Z,1.40
2019-03-31T23:46:44.817Z,0.90
2019-03-31T23:51:38.499Z,1.30
2019-03-31T23:56:32.197Z,1.27
